Spotsylvania, VA

9:12 PM EST on December 28, 2014 (GMT -0500)
Shannon | Change Station
CLOSE
Current Station
Airport
Location: Fredericksburg,
Elevation: 85 ft
Nearby Weather Stations

Elev 85 ft 38.27 °N, 77.45 °W | Updated 17 minutes ago

Overcast
Overcast
50 °F
Feels Like 50 °F
N
0
Wind Variable Wind from North

Today
High -- | Low -- °F
--% Chance of Precip.
Yesterday
High -- | Low -- °F
Precip. -- in
7:26 AM 4:58 PM
First Quarter, 53% visible
Pressure 30.04 in
Visibility 7.0 miles
Clouds Overcast 3300 ft
Dew Point 50 °F
Humidity 100%
Rainfall 0.07 in
Snow Depth Not available.
UV 0 out of 12
Pollen .10 out of 12
Air Quality Not available.
Flu Activity Not available.
METAR KEZF 290155Z AUTO 00000KT 7SM OVC033 10/10 A3004 RMK AO2 T00980098

More Conditions Fewer Conditions

Pressure 30.04 in
Visibility 7.0 miles
Clouds Overcast 3300 ft
Dew Point 50 °F
Humidity 100%
Rainfall 0.07 in
Snow Depth Not available.
UV 0 out of 12
Pollen .10 out of 12
Air Quality Not available.
Flu Activity Not available.
METAR KEZF 290155Z AUTO 00000KT 7SM OVC033 10/10 A3004 RMK AO2 T00980098

More Conditions Fewer Conditions

10-Day Weather Forecast

Almanac

Astronomy

Dec. 28, 2014 Rise Set
Actual Time
Civil Twilight
Nautical Twilight
Astronomical Twilight
Moon
Length of Visible Light
Length of Day
Tomorrow will be .
, % of the Moon is Illuminated

Today's Extremes

State Highs State Lows

Community

WunderPhotos

Upload Photos

1,781,498 photos uploaded!

WunderBlogs® & News

Nearby

Air Quality

  Air Quality AQ Index Pollutant
Not available.

Snow Depth

Station Depth Elevation

Earthquake Activity

City Distance Mag. Time & Date
Minimum magnitude displayed is 2.5.

Coastal Water Temperatures

Place Temperature

Nearby Weather Stations